createdAt,value
2019-03-10T00:01:13.403Z,84.33
2019-03-10T00:03:45.398Z,84.96
2019-03-10T00:06:17.647Z,84.22
2019-03-10T00:08:49.388Z,84.06
2019-03-10T00:11:22.104Z,84.00
2019-03-10T00:13:53.726Z,79.11
2019-03-10T00:16:25.496Z,78.43
2019-03-10T00:18:57.941Z,79.82
2019-03-10T00:21:29.714Z,80.36
2019-03-10T00:24:01.470Z,80.37
2019-03-10T00:26:33.734Z,81.44
2019-03-10T00:29:05.352Z,81.92
2019-03-10T00:31:36.754Z,81.11
2019-03-10T00:34:09.067Z,79.26
2019-03-10T00:36:40.841Z,80.60
2019-03-10T00:39:16.036Z,79.20
2019-03-10T00:41:51.048Z,80.41
2019-03-10T00:44:25.708Z,79.76
2019-03-10T00:47:00.842Z,78.23
2019-03-10T00:49:35.893Z,77.58
2019-03-10T00:52:11.055Z,77.24
2019-03-10T00:54:43.066Z,77.46
2019-03-10T00:57:14.159Z,76.84
2019-03-10T00:59:46.025Z,77.54
2019-03-10T01:02:17.151Z,76.44
2019-03-10T01:04:48.296Z,76.50
2019-03-10T01:07:19.055Z,77.00
2019-03-10T01:09:50.013Z,77.28
2019-03-10T01:12:21.183Z,76.73
2019-03-10T01:14:52.663Z,77.91
2019-03-10T01:17:23.564Z,77.67
2019-03-10T01:19:54.609Z,77.10
2019-03-10T01:22:25.183Z,76.60
2019-03-10T01:24:56.532Z,76.74
2019-03-10T01:27:27.151Z,76.90
2019-03-10T01:29:59.644Z,76.87
2019-03-10T01:32:35.350Z,75.98
2019-03-10T01:35:10.490Z,77.12
2019-03-10T01:37:41.808Z,77.18
2019-03-10T01:40:12.500Z,76.13
2019-03-10T01:42:43.405Z,75.92
2019-03-10T01:45:14.377Z,77.01
2019-03-10T01:47:45.180Z,76.21
2019-03-10T01:50:16.369Z,76.42
2019-03-10T01:52:47.160Z,75.62
2019-03-10T01:55:18.301Z,75.84
2019-03-10T01:57:48.954Z,76.71
2019-03-10T02:00:19.814Z,75.81
2019-03-10T02:02:50.759Z,75.16
2019-03-10T02:05:21.433Z,74.75
2019-03-10T02:07:52.318Z,75.94
2019-03-10T02:10:22.964Z,74.30
2019-03-10T02:12:54.843Z,74.28
2019-03-10T02:15:26.071Z,74.28
2019-03-10T02:17:57.077Z,74.38
2019-03-10T02:20:27.716Z,73.97
2019-03-10T02:22:59.363Z,74.46
2019-03-10T02:25:30.202Z,74.87
2019-03-10T02:28:01.277Z,74.31
2019-03-10T02:30:32.117Z,74.06
2019-03-10T02:33:03.056Z,74.34
2019-03-10T02:35:34.046Z,74.26
2019-03-10T02:38:05.077Z,74.86
2019-03-10T02:40:35.861Z,74.26
2019-03-10T02:43:08.345Z,74.64
2019-03-10T02:45:39.629Z,75.08
2019-03-10T02:48:10.809Z,75.31
2019-03-10T02:50:41.884Z,74.29
2019-03-10T02:53:12.935Z,74.94
2019-03-10T02:55:44.136Z,74.29
2019-03-10T02:58:15.060Z,74.53
2019-03-10T03:00:45.800Z,74.76
2019-03-10T03:03:16.743Z,75.30
2019-03-10T03:05:47.826Z,75.58
2019-03-10T03:08:18.815Z,74.95
2019-03-10T03:10:49.767Z,75.49
2019-03-10T03:13:21.207Z,75.61
2019-03-10T03:15:52.144Z,75.29
2019-03-10T03:18:23.063Z,75.36
2019-03-10T03:20:53.775Z,75.57
2019-03-10T03:23:24.706Z,75.05
2019-03-10T03:25:55.682Z,75.10
2019-03-10T03:28:26.535Z,75.04
2019-03-10T03:30:57.542Z,75.63
2019-03-10T03:33:28.766Z,76.02
2019-03-10T03:36:02.831Z,76.59
2019-03-10T03:38:37.302Z,75.78
2019-03-10T03:41:11.223Z,76.22
2019-03-10T03:43:42.332Z,76.21
2019-03-10T03:46:13.291Z,75.62
2019-03-10T03:48:44.309Z,75.80
2019-03-10T03:51:15.130Z,75.29
2019-03-10T03:53:46.044Z,75.76
2019-03-10T03:56:17.104Z,75.64
2019-03-10T03:58:47.880Z,75.48
2019-03-10T04:01:20.404Z,75.33
2019-03-10T04:03:51.099Z,75.97
2019-03-10T04:06:21.965Z,75.82
2019-03-10T04:08:53.018Z,75.73
2019-03-10T04:11:23.896Z,75.26
2019-03-10T04:13:54.907Z,75.37
2019-03-10T04:16:25.634Z,75.56
2019-03-10T04:18:56.735Z,75.64
2019-03-10T04:21:28.495Z,75.80
2019-03-10T04:23:59.911Z,75.87
2019-03-10T04:26:31.971Z,75.97
2019-03-10T04:29:02.926Z,76.34
2019-03-10T04:31:33.526Z,76.02
2019-03-10T04:34:04.809Z,76.13
2019-03-10T04:36:35.679Z,76.20
2019-03-10T04:39:06.830Z,76.58
2019-03-10T04:41:38.081Z,76.57
2019-03-10T04:44:09.026Z,76.94
2019-03-10T04:46:40.121Z,76.84
2019-03-10T04:49:11.061Z,77.32
2019-03-10T04:51:41.944Z,76.95
2019-03-10T04:54:13.930Z,77.66
2019-03-10T04:56:46.405Z,77.21
2019-03-10T04:59:17.604Z,77.42
2019-03-10T05:01:48.546Z,77.19
2019-03-10T05:04:19.841Z,77.37
2019-03-10T05:06:50.850Z,77.56
2019-03-10T05:09:21.844Z,77.81
2019-03-10T05:11:52.718Z,78.00
2019-03-10T05:14:23.923Z,77.97
2019-03-10T05:16:54.915Z,78.33
2019-03-10T05:19:25.849Z,78.19
2019-03-10T05:21:56.485Z,78.36
2019-03-10T05:24:27.463Z,78.75
2019-03-10T05:26:58.240Z,78.40
2019-03-10T05:29:29.089Z,79.04
2019-03-10T05:32:00.065Z,78.67
2019-03-10T05:34:30.926Z,79.21
2019-03-10T05:37:02.155Z,78.77
2019-03-10T05:39:34.227Z,78.63
2019-03-10T05:42:05.291Z,78.95
2019-03-10T05:44:36.583Z,78.86
2019-03-10T05:47:07.355Z,78.74
2019-03-10T05:49:39.277Z,78.85
2019-03-10T05:52:11.035Z,78.71
2019-03-10T05:54:42.189Z,78.58
2019-03-10T05:57:13.688Z,78.84
2019-03-10T05:59:44.632Z,78.35
2019-03-10T06:02:15.360Z,78.58
2019-03-10T06:04:46.421Z,78.69
2019-03-10T06:07:17.500Z,78.22
2019-03-10T06:09:48.203Z,78.50
2019-03-10T06:12:19.106Z,78.35
2019-03-10T06:14:50.101Z,78.24
2019-03-10T06:17:21.591Z,78.02
2019-03-10T06:19:52.472Z,78.24
2019-03-10T06:22:23.359Z,78.22
2019-03-10T06:24:54.355Z,78.29
2019-03-10T06:27:26.410Z,77.95
2019-03-10T06:29:57.150Z,77.17
2019-03-10T06:32:28.208Z,77.34
2019-03-10T06:34:59.140Z,76.95
2019-03-10T06:37:29.983Z,76.38
2019-03-10T06:40:01.022Z,76.41
2019-03-10T06:42:32.142Z,75.66
2019-03-10T06:45:03.554Z,76.04
2019-03-10T06:47:34.967Z,75.42
2019-03-10T06:50:09.184Z,75.55
2019-03-10T06:52:40.187Z,75.24
2019-03-10T06:55:11.546Z,75.21
2019-03-10T06:57:42.929Z,75.24
2019-03-10T07:00:14.789Z,75.52
2019-03-10T07:02:45.282Z,75.22
2019-03-10T07:05:15.941Z,75.45
2019-03-10T07:07:47.929Z,74.71
2019-03-10T07:10:18.727Z,75.51
2019-03-10T07:12:50.498Z,74.68
2019-03-10T07:15:21.740Z,74.69
2019-03-10T07:17:53.023Z,74.63
2019-03-10T07:20:23.936Z,74.38
2019-03-10T07:22:54.639Z,74.27
2019-03-10T07:25:25.881Z,73.90
2019-03-10T07:27:59.021Z,74.17
2019-03-10T07:30:32.005Z,73.66
2019-03-10T07:33:04.624Z,74.15
2019-03-10T07:35:37.403Z,73.84
2019-03-10T07:38:10.756Z,73.93
2019-03-10T07:40:44.382Z,73.26
2019-03-10T07:43:17.353Z,73.47
2019-03-10T07:45:49.556Z,73.34
2019-03-10T07:48:21.745Z,72.98
2019-03-10T07:50:53.895Z,72.28
2019-03-10T07:53:26.680Z,72.70
2019-03-10T07:56:01.349Z,71.97
2019-03-10T07:58:34.084Z,72.40
2019-03-10T08:01:06.735Z,72.29
2019-03-10T08:03:39.451Z,71.84
2019-03-10T08:06:11.409Z,71.92
2019-03-10T08:08:43.436Z,71.81
2019-03-10T08:11:15.447Z,71.26
2019-03-10T08:13:47.979Z,71.28
2019-03-10T08:16:19.990Z,70.96
2019-03-10T08:18:52.398Z,70.53
2019-03-10T08:21:24.545Z,70.42
2019-03-10T08:23:56.811Z,70.41
2019-03-10T08:26:28.851Z,70.44
2019-03-10T08:29:01.094Z,69.99
2019-03-10T08:31:33.093Z,69.29
2019-03-10T08:34:05.242Z,68.80
2019-03-10T08:36:37.399Z,68.52
2019-03-10T08:39:07.712Z,68.83
2019-03-10T08:41:39.713Z,69.64
2019-03-10T08:44:11.789Z,67.29
2019-03-10T08:46:43.805Z,67.48
2019-03-10T08:49:15.931Z,67.49
2019-03-10T08:51:48.040Z,67.21
2019-03-10T08:54:20.182Z,66.22
2019-03-10T08:56:56.043Z,66.85
2019-03-10T08:59:31.374Z,66.77
2019-03-10T09:02:01.601Z,66.86
2019-03-10T09:04:34.380Z,66.13
2019-03-10T09:07:06.705Z,66.42
2019-03-10T09:09:38.911Z,66.90
2019-03-10T09:12:11.250Z,65.88
2019-03-10T09:14:43.644Z,66.07
2019-03-10T09:17:15.744Z,65.76
2019-03-10T09:19:47.785Z,65.00
2019-03-10T09:22:19.934Z,65.28
2019-03-10T09:24:52.459Z,65.35
2019-03-10T09:27:24.738Z,64.59
2019-03-10T09:29:54.923Z,63.60
2019-03-10T09:32:26.995Z,63.27
2019-03-10T09:34:59.039Z,61.53
2019-03-10T09:37:31.103Z,62.15
2019-03-10T09:40:03.187Z,62.02
2019-03-10T09:42:39.388Z,61.54
2019-03-10T09:45:10.171Z,61.32
2019-03-10T09:47:43.340Z,61.71
2019-03-10T09:50:15.429Z,61.21
2019-03-10T09:52:47.448Z,61.83
2019-03-10T09:55:20.419Z,61.61
2019-03-10T09:57:52.837Z,61.82
2019-03-10T10:00:28.165Z,61.09
2019-03-10T10:03:00.700Z,61.27
2019-03-10T10:05:34.510Z,60.97
2019-03-10T10:08:08.065Z,61.98
2019-03-10T10:10:40.534Z,62.02
2019-03-10T10:13:13.155Z,62.18
2019-03-10T10:15:45.721Z,62.36
2019-03-10T10:18:16.445Z,62.61
2019-03-10T10:20:49.449Z,61.71
2019-03-10T10:23:21.951Z,60.86
2019-03-10T10:25:54.579Z,60.42
2019-03-10T10:28:28.222Z,59.81
2019-03-10T10:31:01.818Z,59.51
2019-03-10T10:33:34.559Z,59.86
2019-03-10T10:36:07.297Z,60.46
2019-03-10T10:38:40.998Z,60.85
2019-03-10T10:41:13.778Z,60.53
2019-03-10T10:43:46.843Z,59.96
2019-03-10T10:46:19.414Z,59.82
2019-03-10T10:48:52.415Z,59.79
2019-03-10T10:51:24.639Z,60.32
2019-03-10T10:53:57.154Z,59.61
2019-03-10T10:56:27.871Z,59.90
2019-03-10T10:59:00.470Z,57.87
2019-03-10T11:01:32.474Z,58.45
2019-03-10T11:04:04.888Z,57.88
2019-03-10T11:06:37.758Z,57.24
2019-03-10T11:09:11.275Z,57.16
2019-03-10T11:11:43.672Z,58.47
2019-03-10T11:14:16.575Z,56.93
2019-03-10T11:16:49.082Z,56.73
2019-03-10T11:19:21.880Z,56.84
2019-03-10T11:21:54.341Z,57.08
2019-03-10T11:24:26.708Z,57.29
2019-03-10T11:26:57.855Z,58.01
2019-03-10T11:29:30.377Z,58.86
2019-03-10T11:32:03.297Z,57.62
2019-03-10T11:34:35.797Z,58.08
2019-03-10T11:37:07.922Z,57.37
2019-03-10T11:39:38.068Z,55.30
2019-03-10T11:42:10.186Z,54.62
2019-03-10T11:44:42.287Z,55.35
2019-03-10T11:47:15.587Z,55.22
2019-03-10T11:49:47.742Z,54.82
2019-03-10T11:52:20.170Z,55.09
2019-03-10T11:54:52.267Z,56.15
2019-03-10T11:57:25.427Z,55.64
2019-03-10T11:59:55.628Z,56.14
2019-03-10T12:02:25.811Z,55.93
2019-03-10T12:04:57.931Z,57.03
2019-03-10T12:07:30.095Z,56.24
2019-03-10T12:10:00.491Z,56.37
2019-03-10T12:12:32.427Z,56.64
2019-03-10T12:15:03.087Z,55.55
2019-03-10T12:17:35.166Z,55.22
2019-03-10T12:20:09.002Z,55.96
2019-03-10T12:22:39.728Z,55.74
2019-03-10T12:25:12.320Z,55.75
2019-03-10T12:27:43.265Z,56.34
2019-03-10T12:30:15.548Z,54.98
2019-03-10T12:32:47.083Z,54.91
2019-03-10T12:35:17.599Z,55.90
2019-03-10T12:37:48.240Z,55.06
2019-03-10T12:40:18.839Z,54.08
2019-03-10T12:42:49.256Z,55.44
2019-03-10T12:45:19.849Z,54.88
2019-03-10T12:47:50.290Z,53.93
2019-03-10T12:50:20.873Z,52.96
2019-03-10T12:52:51.376Z,53.39
2019-03-10T12:55:21.848Z,53.57
2019-03-10T12:57:52.288Z,53.48
2019-03-10T13:00:22.976Z,53.33
2019-03-10T13:02:53.680Z,53.04
2019-03-10T13:05:24.409Z,49.91
2019-03-10T13:07:54.919Z,51.86
2019-03-10T13:10:25.570Z,53.60
2019-03-10T13:12:56.679Z,54.11
2019-03-10T13:15:28.902Z,53.19
2019-03-10T13:17:59.544Z,46.94
2019-03-10T13:20:30.648Z,48.58
2019-03-10T13:23:01.685Z,47.12
2019-03-10T13:25:32.875Z,48.25
2019-03-10T13:28:04.210Z,48.32
2019-03-10T13:30:35.097Z,49.27
2019-03-10T13:33:05.669Z,47.11
2019-03-10T13:35:43.572Z,48.38
2019-03-10T13:38:14.823Z,50.48
2019-03-10T13:40:45.945Z,51.23
2019-03-10T13:43:16.895Z,51.72
2019-03-10T13:45:48.712Z,52.34
2019-03-10T13:48:19.874Z,53.69
2019-03-10T13:50:50.915Z,55.55
2019-03-10T13:53:22.185Z,57.46
2019-03-10T13:55:53.110Z,59.37
2019-03-10T13:58:24.093Z,60.18
2019-03-10T14:00:54.853Z,63.07
2019-03-10T14:03:25.810Z,64.78
2019-03-10T14:05:57.115Z,64.95
2019-03-10T14:08:28.194Z,66.67
2019-03-10T14:10:59.446Z,66.22
2019-03-10T14:13:30.238Z,69.81
2019-03-10T14:16:01.559Z,71.19
2019-03-10T14:18:32.678Z,70.82
2019-03-10T14:21:03.762Z,72.38
2019-03-10T14:23:35.298Z,72.42
2019-03-10T14:26:06.539Z,69.79
2019-03-10T14:28:38.132Z,72.87
2019-03-10T14:31:09.075Z,73.30
2019-03-10T14:33:40.644Z,75.97
2019-03-10T14:36:11.477Z,78.74
2019-03-10T14:38:42.773Z,76.24
2019-03-10T14:41:14.026Z,77.57
2019-03-10T14:43:45.632Z,78.24
2019-03-10T14:46:17.114Z,79.20
2019-03-10T14:48:48.166Z,80.24
2019-03-10T14:51:19.150Z,80.60
2019-03-10T14:53:50.248Z,80.03
2019-03-10T14:56:21.051Z,80.05
2019-03-10T14:58:52.153Z,81.77
2019-03-10T15:01:23.196Z,81.11
2019-03-10T15:03:54.174Z,80.79
2019-03-10T15:06:25.595Z,81.31
2019-03-10T15:08:56.511Z,79.90
2019-03-10T15:11:28.117Z,81.67
2019-03-10T15:13:59.102Z,82.26
2019-03-10T15:16:30.129Z,81.32
2019-03-10T15:19:02.269Z,80.78
2019-03-10T15:21:34.507Z,80.62
2019-03-10T15:24:06.562Z,80.81
2019-03-10T15:26:45.699Z,81.65
2019-03-10T15:29:14.481Z,81.41
2019-03-10T15:31:46.203Z,81.25
2019-03-10T15:34:17.617Z,80.16
2019-03-10T15:36:48.836Z,80.64
2019-03-10T15:39:19.730Z,80.48
2019-03-10T15:41:50.831Z,80.82
2019-03-10T15:44:21.666Z,81.37
2019-03-10T15:46:52.505Z,80.35
2019-03-10T15:49:24.536Z,80.67
2019-03-10T15:51:55.849Z,82.41
2019-03-10T15:54:27.183Z,82.39
2019-03-10T15:56:58.617Z,82.50
2019-03-10T15:59:29.914Z,83.18
2019-03-10T16:02:01.600Z,82.07
2019-03-10T16:04:32.564Z,82.48
2019-03-10T16:07:03.673Z,82.38
2019-03-10T16:09:34.834Z,82.91
2019-03-10T16:12:06.523Z,83.32
2019-03-10T16:14:37.797Z,82.32
2019-03-10T16:17:08.956Z,82.48
2019-03-10T16:19:40.526Z,83.06
2019-03-10T16:22:11.393Z,83.91
2019-03-10T16:24:42.638Z,84.34
2019-03-10T16:27:13.788Z,85.14
2019-03-10T16:29:45.360Z,85.08
2019-03-10T16:32:16.528Z,85.12
2019-03-10T16:34:47.810Z,85.98
2019-03-10T16:37:19.176Z,85.10
2019-03-10T16:39:50.277Z,84.74
2019-03-10T16:42:21.086Z,85.00
2019-03-10T16:44:52.946Z,84.45
2019-03-10T16:47:24.094Z,85.35
2019-03-10T16:49:56.506Z,85.51
2019-03-10T16:52:27.514Z,85.56
2019-03-10T16:54:58.943Z,84.94
2019-03-10T16:57:30.103Z,85.35
2019-03-10T17:00:01.067Z,86.10
2019-03-10T17:02:33.785Z,86.83
2019-03-10T17:05:07.935Z,86.39
2019-03-10T17:07:39.279Z,86.16
2019-03-10T17:10:13.675Z,86.46
2019-03-10T17:12:44.816Z,86.57
2019-03-10T17:15:19.012Z,86.21
2019-03-10T17:17:50.169Z,86.74
2019-03-10T17:20:22.111Z,86.53
2019-03-10T17:22:53.171Z,86.62
2019-03-10T17:25:24.845Z,86.69
2019-03-10T17:27:56.674Z,86.95
2019-03-10T17:30:27.878Z,87.34
2019-03-10T17:32:58.682Z,87.11
2019-03-10T17:35:29.313Z,87.84
2019-03-10T17:38:00.958Z,88.67
2019-03-10T17:40:31.652Z,88.47
2019-03-10T17:43:02.440Z,87.93
2019-03-10T17:45:32.872Z,87.69
2019-03-10T17:48:03.680Z,87.97
2019-03-10T17:50:34.482Z,87.63
2019-03-10T17:53:07.378Z,87.24
2019-03-10T17:55:37.878Z,86.92
2019-03-10T17:58:08.518Z,87.34
2019-03-10T18:00:40.240Z,87.18
2019-03-10T18:03:10.800Z,87.20
2019-03-10T18:05:41.678Z,87.86
2019-03-10T18:08:12.121Z,87.67
2019-03-10T18:10:42.783Z,87.08
2019-03-10T18:13:14.199Z,88.19
2019-03-10T18:15:44.935Z,87.57
2019-03-10T18:18:15.730Z,87.76
2019-03-10T18:20:46.681Z,87.55
2019-03-10T18:23:17.739Z,87.91
2019-03-10T18:25:48.571Z,88.31
2019-03-10T18:28:31.890Z,88.76
2019-03-10T18:31:06.242Z,88.79
2019-03-10T18:33:43.467Z,89.24
2019-03-10T18:36:18.635Z,89.37
2019-03-10T18:38:49.801Z,89.56
2019-03-10T18:41:20.779Z,89.74
2019-03-10T18:43:52.002Z,90.20
2019-03-10T18:46:24.161Z,90.05
2019-03-10T18:48:54.881Z,90.21
2019-03-10T18:51:25.762Z,90.08
2019-03-10T18:53:56.466Z,89.87
2019-03-10T18:56:27.075Z,89.98
2019-03-10T18:58:58.175Z,90.01
2019-03-10T19:01:28.761Z,89.32
2019-03-10T19:03:59.561Z,88.62
2019-03-10T19:06:31.562Z,88.79
2019-03-10T19:09:02.328Z,88.42
2019-03-10T19:11:35.245Z,88.66
2019-03-10T19:14:06.011Z,89.01
2019-03-10T19:16:36.521Z,88.83
2019-03-10T19:19:08.002Z,88.88
2019-03-10T19:21:38.649Z,88.86
2019-03-10T19:24:09.100Z,88.95
2019-03-10T19:26:39.771Z,88.67
2019-03-10T19:29:10.362Z,88.69
2019-03-10T19:31:41.201Z,88.88
2019-03-10T19:34:11.921Z,88.91
2019-03-10T19:36:56.526Z,89.23
2019-03-10T19:39:19.082Z,89.28
2019-03-10T19:41:49.778Z,88.96
2019-03-10T19:44:21.308Z,88.82
2019-03-10T19:46:52.979Z,89.15
2019-03-10T19:49:23.730Z,89.62
2019-03-10T19:51:54.322Z,89.58
2019-03-10T19:54:24.787Z,89.81
2019-03-10T19:56:55.770Z,89.47
2019-03-10T19:59:26.692Z,90.07
2019-03-10T20:01:57.515Z,90.27
2019-03-10T20:04:28.289Z,90.48
2019-03-10T20:06:58.899Z,90.53
2019-03-10T20:09:29.364Z,90.80
2019-03-10T20:12:00.114Z,90.98
2019-03-10T20:14:30.852Z,91.20
2019-03-10T20:17:05.185Z,91.04
2019-03-10T20:19:37.361Z,91.33
2019-03-10T20:22:10.266Z,91.49
2019-03-10T20:24:41.364Z,91.24
2019-03-10T20:27:11.893Z,91.10
2019-03-10T20:29:42.899Z,91.30
2019-03-10T20:32:14.423Z,91.36
2019-03-10T20:34:45.106Z,91.62
2019-03-10T20:37:16.076Z,91.86
2019-03-10T20:39:46.786Z,92.14
2019-03-10T20:42:17.605Z,91.82
2019-03-10T20:44:48.363Z,91.80
2019-03-10T20:47:19.030Z,91.32
2019-03-10T20:49:49.760Z,90.73
2019-03-10T20:52:20.749Z,90.73
2019-03-10T20:54:51.395Z,91.09
2019-03-10T20:57:22.689Z,90.99
2019-03-10T21:00:00.753Z,90.83
2019-03-10T21:02:30.844Z,89.28
2019-03-10T21:05:02.405Z,90.08
2019-03-10T21:07:34.075Z,90.22
2019-03-10T21:10:07.564Z,90.54
2019-03-10T21:12:41.774Z,90.29
2019-03-10T21:15:14.366Z,89.83
2019-03-10T21:17:45.894Z,90.48
2019-03-10T21:20:19.338Z,90.68
2019-03-10T21:22:50.896Z,90.61
2019-03-10T21:25:23.946Z,90.67
2019-03-10T21:27:54.777Z,90.93
2019-03-10T21:30:28.568Z,90.96
2019-03-10T21:32:59.853Z,90.82
2019-03-10T21:35:33.104Z,90.82
2019-03-10T21:38:03.701Z,90.93
2019-03-10T21:40:34.875Z,90.94
2019-03-10T21:43:05.414Z,91.21
2019-03-10T21:45:36.906Z,91.12
2019-03-10T21:48:09.107Z,91.30
2019-03-10T21:50:40.073Z,91.23
2019-03-10T21:53:10.805Z,91.07
2019-03-10T21:55:41.733Z,91.37
2019-03-10T21:58:13.453Z,91.57
2019-03-10T22:00:45.488Z,91.86
2019-03-10T22:03:16.964Z,91.63
2019-03-10T22:05:47.435Z,91.81
2019-03-10T22:08:18.644Z,91.79
2019-03-10T22:10:49.503Z,91.71
2019-03-10T22:13:21.065Z,91.86
2019-03-10T22:15:53.630Z,92.08
2019-03-10T22:18:24.384Z,92.34
2019-03-10T22:20:55.748Z,92.30
2019-03-10T22:23:26.309Z,92.72
2019-03-10T22:25:57.985Z,92.73
2019-03-10T22:28:30.257Z,92.54
2019-03-10T22:31:01.732Z,92.61
2019-03-10T22:33:33.132Z,92.60
2019-03-10T22:36:04.413Z,92.87
2019-03-10T22:38:35.225Z,92.95
2019-03-10T22:41:06.808Z,92.81
2019-03-10T22:43:38.575Z,93.00
2019-03-10T22:46:10.368Z,92.70
2019-03-10T22:48:42.344Z,92.62
2019-03-10T22:51:13.734Z,92.71
2019-03-10T22:53:46.345Z,92.90
2019-03-10T22:56:17.946Z,93.14
2019-03-10T22:58:50.654Z,92.99
2019-03-10T23:01:22.176Z,93.12
2019-03-10T23:03:53.108Z,92.83
2019-03-10T23:06:24.369Z,93.04
2019-03-10T23:08:56.187Z,93.23
2019-03-10T23:11:27.137Z,93.01
2019-03-10T23:13:58.304Z,92.88
2019-03-10T23:16:29.751Z,93.04
2019-03-10T23:19:01.175Z,93.25
2019-03-10T23:21:32.367Z,93.24
2019-03-10T23:24:03.849Z,93.62
2019-03-10T23:26:35.110Z,93.60
2019-03-10T23:29:06.626Z,93.75
2019-03-10T23:31:42.181Z,93.88
2019-03-10T23:34:15.020Z,94.46
2019-03-10T23:36:46.079Z,94.46
2019-03-10T23:39:17.419Z,94.06
2019-03-10T23:41:48.733Z,93.93
2019-03-10T23:44:20.157Z,94.05
2019-03-10T23:46:52.366Z,94.13
2019-03-10T23:49:23.262Z,94.20
2019-03-10T23:51:54.923Z,94.20
2019-03-10T23:54:26.647Z,94.06
2019-03-10T23:56:59.344Z,94.13
2019-03-10T23:59:30.337Z,94.35
